Norwood, Pennsylvania
Current Conditions -  °F | °C
As of 11:50 AM on Wednesday 22 Oct 2014 (Local Time) from KPHL Reporting Station
Heavy Rain Heavy Rain  
Wind Chill: 55°   Ceiling: 1300
Heat Index: 55°   Visibility: 5mi
Dew Point: 52°   Wind: 16mph
Humidity: 88%   Direction: 10°N
Pressure: 29.89"   Gusts: 24mph
Location:  39.89°N, 75.3°W
Report Text: KPHL 221550Z 01014G21KT 5SM +RA BKN013 OVC025 13/11 A2989 RMK AO2 PK WND 02026/1532 P0007 $
Loading
Personal Weather Stations






























Interactive Weather Map
Tropical Storm Tracking
New forecast layout! Learn more

10-Day Weather Forecast

Advertisements
Track Severe Weather on mobile